Decoded Metar for CYPH (INUKJUAK in QC, CANADA) (IATA:YPH) | Meteo·Mobile Aviation Weather
aviador You're here:

CYPH Decoded Metar

INUKJUAK in QC, CANADA
Report Time2019-02-23 00:00:00
UTC Time2019-02-23 01:07:06
Flight Rules Old
Wind230° at 09 kt
W.Decomp.*RWY 25: 9.0 kt HW 0.2 kt LCW
W.Rank230° ranks 2
Current wind is below 230° avg. (11.1)
Visibility9999 m
Phenomena:N/A
Clouds:N/A
Expected CloudBase > 1,200 ft AGL from Temp-Dew spread
CeilingNone
Temp-25°C (ISA -40)
Dew Point-28°C (76% RH)
AAT-32.0°C
QNH1022 hPa
Density Alt-5,479 ft
Elevation10 ft
Report Wrong Elevation
Raw Report
CYPH 230000Z AUTO 23009KT 9SM CLR M25/M28 A3019 RMK SLP230=

Extra information for CYPH:More info

Metar Taf Metar & Taf Last 4 Metars F.Rules Stats Wind Profile Meteogram Temp Stats Airport Information Weather charts Add Link Nearby VenuesMetar ALERT Operation Metar Decoded Social comments